BENVENUTI AL 154° GRUPPO VIRTUALE
Saturday, 23 May 2020 02:21

OCU1

Written by
Rate this item
(0 votes)

Primo giorno di addestramento OCU su F-14B, Pilot per FRECCIA10 sul 101, Rio per il neo promosso FRECCIA14 sul 103.

Read 656 times Last modified on Saturday, 23 May 2020 10:44

Media

https://drive.google.com/open?id=18k-JkhTbXZJyRrY_Q21iW8L0Q7MAZglF

Leave a comment

Make sure you enter all the required information, indicated by an asterisk (*). HTML code is not allowed.

METAR & TAF

[Source: ADDS]
METAR
LIPL 230855Z 24003KT 4000 BR SCT040 20/15 Q1010 RMK BKN VIS MIN 4000 WIND THR31 26004KT WIND THR13 25003KT GRN =
LIPL 230800Z 2309/2318 VRB03KT 5000 BR FEW030 SCT060 TEMPO 2309/2310 3500 BR SCT030 SCT050 BECMG 2311/2313 9999 SCT080
TAF
LIPL 230800Z 2309/2318 VRB03KT 5000 BR FEW030 SCT060 TEMPO 2309/2310 3500 BR SCT030 SCT050 BECMG 2311/2313 9999 SCT080 =

Notice: Undefined index: sun in /web/htdocs/www.154gruppovirtuale.it/home/modules/mod_wx/tmpl/default.php on line 13

Link utili

 
 
 

Network

Simulation Platform